Time;durP1;ratioP1;P1;durP2;ratioP2;P2;SDS_P1;SDS_P2;PMS_P1;PMS_P2;Temp;Humidity;BMP_temperature;BMP_pressure;BME280_temperature;BME280_humidity;BME280_pressure;Samples;Min_cycle;Max_cycle;Signal;HPM_P1;HPM_P2
2024/01/22 00:01:38;;;;;;;11.75;5.05;;;;;;;;;;5069034;28;20427;-82
2024/01/22 00:04:06;;;;;;;7.95;5.28;;;;;;;;;;5087592;28;20482;-83
2024/01/22 00:06:33;;;;;;;10.88;5.97;;;;;;;;;;5067624;28;20410;-82
2024/01/22 00:08:59;;;;;;;9.90;5.50;;;;;;;;;;5086982;28;20454;-82
2024/01/22 00:11:25;;;;;;;10.88;5.47;;;;;;;;;;5085405;28;20736;-83
2024/01/22 00:13:51;;;;;;;9.55;5.30;;;;;;;;;;5068751;28;20968;-82
2024/01/22 00:16:17;;;;;;;11.55;5.72;;;;;;;;;;5083454;28;21012;-83
2024/01/22 00:19:31;;;;;;;12.07;5.65;;;;;;;;;;5136710;27;20687;-82
2024/01/22 00:21:57;;;;;;;9.05;5.63;;;;;;;;;;5106208;28;20397;-82
2024/01/22 00:24:23;;;;;;;7.78;5.13;;;;;;;;;;5091919;28;20405;-82
2024/01/22 00:29:57;;;;;;;10.53;5.27;;;;;;;;;;5109640;27;20361;-83
2024/01/22 00:32:23;;;;;;;10.45;5.00;;;;;;;;;;5082517;28;20509;-83
2024/01/22 00:36:48;;;;;;;10.90;5.20;;;;;;;;;;5116607;27;2013703;-83
2024/01/22 00:39:14;;;;;;;10.95;5.60;;;;;;;;;;5127894;27;20412;-83
2024/01/22 00:42:16;;;;;;;8.77;5.45;;;;;;;;;;5150682;27;20346;-83
2024/01/22 00:44:44;;;;;;;10.47;5.57;;;;;;;;;;5131736;27;20397;-83
2024/01/22 00:47:10;;;;;;;10.35;5.03;;;;;;;;;;5114564;27;20397;-82
2024/01/22 00:49:36;;;;;;;9.40;5.25;;;;;;;;;;5132149;27;20394;-83
2024/01/22 00:52:02;;;;;;;10.20;5.78;;;;;;;;;;5148720;27;20447;-83
2024/01/22 00:54:28;;;;;;;9.70;5.05;;;;;;;;;;5115019;27;20417;-83
2024/01/22 00:56:55;;;;;;;9.02;5.05;;;;;;;;;;5132424;27;20401;-83
2024/01/22 00:59:21;;;;;;;9.03;5.13;;;;;;;;;;5132022;27;20405;-83
2024/01/22 01:01:48;;;;;;;10.05;5.07;;;;;;;;;;5132056;27;20466;-83
2024/01/22 01:04:14;;;;;;;9.52;5.18;;;;;;;;;;5132060;27;20405;-83
2024/01/22 01:06:40;;;;;;;8.30;4.87;;;;;;;;;;5103793;27;20862;-84
2024/01/22 01:09:06;;;;;;;8.93;4.60;;;;;;;;;;5143137;27;20428;-83
2024/01/22 01:11:32;;;;;;;7.22;4.45;;;;;;;;;;5145536;27;20872;-84
2024/01/22 01:13:58;;;;;;;8.35;4.45;;;;;;;;;;5128437;27;20459;-83
2024/01/22 01:18:40;;;;;;;7.28;4.32;;;;;;;;;;5093657;27;20350;-84
2024/01/22 01:22:23;;;;;;;8.55;4.57;;;;;;;;;;5109494;27;20360;-84
2024/01/22 01:24:50;;;;;;;7.85;4.50;;;;;;;;;;5073731;28;20873;-84
2024/01/22 01:29:23;;;;;;;9.27;4.70;;;;;;;;;;5103863;27;2372828;-84
2024/01/22 01:31:49;;;;;;;9.35;4.63;;;;;;;;;;5117667;27;20392;-84
2024/01/22 01:34:15;;;;;;;8.75;4.85;;;;;;;;;;5135636;27;20392;-81
2024/01/22 01:36:41;;;;;;;11.85;5.20;;;;;;;;;;5149801;27;20400;-84
2024/01/22 01:39:08;;;;;;;11.13;4.55;;;;;;;;;;5118417;27;20451;-82
2024/01/22 01:41:34;;;;;;;8.82;4.82;;;;;;;;;;5151786;27;20420;-82
2024/01/22 01:44:00;;;;;;;9.38;5.00;;;;;;;;;;5126730;27;20394;-82
2024/01/22 01:46:26;;;;;;;10.05;5.28;;;;;;;;;;5145314;27;20468;-82
2024/01/22 01:48:52;;;;;;;8.83;4.60;;;;;;;;;;5152483;27;20435;-81
2024/01/22 01:51:18;;;;;;;8.82;4.93;;;;;;;;;;5133912;27;20432;-82
2024/01/22 01:53:48;;;;;;;9.93;5.18;;;;;;;;;;5152602;27;20384;-82
2024/01/22 01:56:15;;;;;;;10.70;5.05;;;;;;;;;;5151929;27;20445;-81
2024/01/22 01:58:41;;;;;;;10.00;5.35;;;;;;;;;;5170371;27;20408;-81
2024/01/22 02:01:07;;;;;;;10.88;5.20;;;;;;;;;;5130109;27;20405;-82
2024/01/22 02:03:33;;;;;;;13.07;5.40;;;;;;;;;;5123109;27;20437;-82
2024/01/22 02:05:59;;;;;;;8.20;5.00;;;;;;;;;;5131636;27;20481;-81
2024/01/22 02:08:25;;;;;;;10.80;5.40;;;;;;;;;;5130565;27;20431;-81
2024/01/22 02:14:30;;;;;;;10.57;5.77;;;;;;;;;;5128365;27;20835;-81
2024/01/22 02:17:33;;;;;;;8.32;5.30;;;;;;;;;;5142807;27;20380;-81
2024/01/22 02:19:59;;;;;;;10.02;5.22;;;;;;;;;;5147620;27;20394;-81
2024/01/22 02:22:25;;;;;;;9.83;5.27;;;;;;;;;;5149881;27;20476;-83
2024/01/22 02:24:51;;;;;;;9.50;4.70;;;;;;;;;;5131193;27;20424;-83
2024/01/22 02:27:17;;;;;;;8.18;5.28;;;;;;;;;;5131766;27;20435;-83
2024/01/22 02:29:44;;;;;;;7.80;5.00;;;;;;;;;;5144717;27;20484;-82
2024/01/22 02:32:10;;;;;;;8.93;5.13;;;;;;;;;;5140360;27;20405;-82
2024/01/22 02:34:37;;;;;;;8.55;4.47;;;;;;;;;;5129972;27;20510;-82
2024/01/22 02:37:03;;;;;;;10.68;5.10;;;;;;;;;;5148740;27;20422;-82
2024/01/22 02:39:30;;;;;;;8.57;4.70;;;;;;;;;;5147280;27;20960;-83
2024/01/22 02:41:56;;;;;;;8.50;4.50;;;;;;;;;;5148752;27;20445;-83
2024/01/22 02:48:35;;;;;;;8.77;4.53;;;;;;;;;;5091208;27;20390;-84
2024/01/22 02:51:01;;;;;;;9.10;4.30;;;;;;;;;;5051247;28;20815;-80
2024/01/22 02:53:28;;;;;;;8.80;4.72;;;;;;;;;;5088458;28;20751;-80
2024/01/22 02:55:54;;;;;;;9.23;4.50;;;;;;;;;;5064618;28;20397;-81
2024/01/22 02:58:54;;;;;;;9.97;4.83;;;;;;;;;;5096991;27;20355;-81
2024/01/22 03:01:20;;;;;;;8.10;4.68;;;;;;;;;;5080988;28;20759;-81
2024/01/22 03:03:46;;;;;;;7.18;4.70;;;;;;;;;;5088686;28;20392;-81
2024/01/22 03:06:12;;;;;;;7.60;4.63;;;;;;;;;;5096054;28;20447;-81
2024/01/22 03:08:39;;;;;;;8.57;4.93;;;;;;;;;;5126651;27;20405;-81
2024/01/22 03:11:05;;;;;;;9.38;5.10;;;;;;;;;;5091225;28;20406;-81
2024/01/22 03:14:49;;;;;;;8.68;4.80;;;;;;;;;;5109135;27;20356;-81
2024/01/22 03:17:42;;;;;;;7.43;4.72;;;;;;;;;;5127947;27;20364;-81
2024/01/22 03:20:08;;;;;;;8.25;4.72;;;;;;;;;;5109276;28;20865;-81
2024/01/22 03:22:34;;;;;;;8.35;4.53;;;;;;;;;;5121459;27;20427;-81
2024/01/22 03:25:00;;;;;;;9.52;5.38;;;;;;;;;;5106249;28;20434;-81
2024/01/22 03:27:26;;;;;;;9.10;5.40;;;;;;;;;;5089969;28;20456;-81
2024/01/22 03:32:13;;;;;;;9.73;5.32;;;;;;;;;;5100251;27;20878;-81
2024/01/22 03:34:39;;;;;;;8.63;4.95;;;;;;;;;;5064440;27;20395;-81
2024/01/22 03:37:05;;;;;;;10.60;5.45;;;;;;;;;;5162607;27;20432;-81
2024/01/22 03:39:31;;;;;;;9.52;5.60;;;;;;;;;;5124429;27;20445;-81
2024/01/22 03:41:57;;;;;;;7.57;4.70;;;;;;;;;;5064973;27;20406;-81
2024/01/22 03:44:23;;;;;;;8.27;5.35;;;;;;;;;;5095227;27;20963;-81
2024/01/22 03:46:49;;;;;;;9.63;5.22;;;;;;;;;;5054801;27;20739;-81
2024/01/22 03:49:15;;;;;;;9.98;5.40;;;;;;;;;;5060680;28;20823;-81
2024/01/22 03:51:41;;;;;;;9.93;5.43;;;;;;;;;;5044885;28;20422;-81
2024/01/22 03:54:07;;;;;;;10.35;5.47;;;;;;;;;;5067401;27;20492;-81
2024/01/22 03:56:34;;;;;;;10.32;5.22;;;;;;;;;;5036243;28;20490;-81
2024/01/22 03:59:00;;;;;;;8.07;4.25;;;;;;;;;;5043675;28;20506;-81
2024/01/22 04:01:26;;;;;;;10.05;5.30;;;;;;;;;;5056367;27;20446;-82
2024/01/22 04:03:52;;;;;;;7.70;5.05;;;;;;;;;;5045820;28;20788;-81
2024/01/22 04:06:18;;;;;;;7.30;4.78;;;;;;;;;;5059714;28;20393;-81
2024/01/22 04:08:44;;;;;;;8.10;4.97;;;;;;;;;;5059548;27;20391;-81
2024/01/22 04:11:10;;;;;;;6.97;4.57;;;;;;;;;;5063855;27;20922;-81
2024/01/22 04:13:39;;;;;;;8.95;4.80;;;;;;;;;;5019109;28;20409;-81
2024/01/22 04:16:05;;;;;;;6.85;4.63;;;;;;;;;;5058582;28;20418;-81
2024/01/22 04:18:32;;;;;;;7.43;5.15;;;;;;;;;;5044170;27;20404;-81
2024/01/22 04:20:58;;;;;;;6.82;5.00;;;;;;;;;;5052933;27;20397;-81
2024/01/22 04:23:24;;;;;;;7.20;4.67;;;;;;;;;;5071502;27;20438;-81
2024/01/22 04:25:50;;;;;;;7.03;4.50;;;;;;;;;;5049246;27;20444;-81
2024/01/22 04:28:16;;;;;;;6.82;4.70;;;;;;;;;;5100943;27;20458;-81
2024/01/22 04:30:43;;;;;;;7.53;4.53;;;;;;;;;;5051960;27;20609;-81
2024/01/22 04:33:09;;;;;;;7.03;4.60;;;;;;;;;;5056912;27;20793;-81
2024/01/22 04:35:35;;;;;;;6.43;4.30;;;;;;;;;;5069321;27;20737;-81
2024/01/22 04:38:51;;;;;;;7.47;4.80;;;;;;;;;;5131503;27;20352;-80
2024/01/22 04:41:17;;;;;;;6.68;4.32;;;;;;;;;;5145245;27;20414;-80
2024/01/22 04:43:43;;;;;;;5.95;4.22;;;;;;;;;;5129317;27;20449;-81
2024/01/22 04:46:09;;;;;;;6.43;4.40;;;;;;;;;;5127472;27;20399;-80
2024/01/22 04:48:46;;;;;;;7.10;4.60;;;;;;;;;;5101184;27;1974013;-80
2024/01/22 04:51:12;;;;;;;7.22;4.68;;;;;;;;;;5148218;27;20390;-81
2024/01/22 04:53:38;;;;;;;7.20;4.35;;;;;;;;;;5089861;28;20395;-81
2024/01/22 04:56:04;;;;;;;6.82;4.80;;;;;;;;;;5094526;28;20452;-81
2024/01/22 04:58:30;;;;;;;7.93;4.63;;;;;;;;;;5129528;28;20399;-81
2024/01/22 05:00:56;;;;;;;6.07;4.20;;;;;;;;;;5109378;27;20406;-80
2024/01/22 05:03:23;;;;;;;7.13;4.43;;;;;;;;;;5124900;28;20451;-81
2024/01/22 05:05:50;;;;;;;7.15;4.30;;;;;;;;;;5112075;27;20448;-81
2024/01/22 05:08:16;;;;;;;6.28;4.20;;;;;;;;;;5140325;27;20425;-81
2024/01/22 05:10:42;;;;;;;5.68;3.70;;;;;;;;;;5148794;27;20405;-81
2024/01/22 05:13:08;;;;;;;6.65;3.90;;;;;;;;;;5149013;27;20778;-80
2024/01/22 05:15:34;;;;;;;5.55;3.63;;;;;;;;;;5117082;28;20500;-80
2024/01/22 05:18:00;;;;;;;4.65;3.10;;;;;;;;;;5126025;28;20544;-80
2024/01/22 05:20:26;;;;;;;4.75;3.33;;;;;;;;;;5127088;28;20790;-80
2024/01/22 05:22:52;;;;;;;6.55;3.25;;;;;;;;;;5128003;28;20403;-80
2024/01/22 05:25:19;;;;;;;4.57;2.95;;;;;;;;;;5093020;28;20474;-80
2024/01/22 05:27:47;;;;;;;5.20;3.10;;;;;;;;;;5125736;28;20415;-80
2024/01/22 05:30:14;;;;;;;4.75;2.72;;;;;;;;;;5109372;28;20435;-80
2024/01/22 05:32:40;;;;;;;4.05;2.58;;;;;;;;;;5110920;28;20474;-80
2024/01/22 05:35:06;;;;;;;4.05;2.05;;;;;;;;;;5091176;28;20474;-80
2024/01/22 05:37:32;;;;;;;3.92;1.83;;;;;;;;;;5126441;28;20499;-80
2024/01/22 05:39:58;;;;;;;4.38;1.90;;;;;;;;;;5109920;28;20401;-81
2024/01/22 05:42:24;;;;;;;3.40;1.70;;;;;;;;;;5092739;28;20449;-81
2024/01/22 05:44:51;;;;;;;5.15;1.90;;;;;;;;;;5106740;28;20405;-82
2024/01/22 05:47:17;;;;;;;4.68;1.90;;;;;;;;;;5088737;28;20429;-82
2024/01/22 05:49:43;;;;;;;2.90;1.60;;;;;;;;;;5089728;28;20426;-81
2024/01/22 05:52:09;;;;;;;3.65;1.70;;;;;;;;;;5105492;28;20398;-81
2024/01/22 05:54:35;;;;;;;4.38;1.83;;;;;;;;;;5103643;28;20432;-81
2024/01/22 05:57:01;;;;;;;5.13;1.80;;;;;;;;;;5104293;28;20500;-81
2024/01/22 05:59:27;;;;;;;4.28;1.70;;;;;;;;;;5080240;28;20727;-81
2024/01/22 06:01:56;;;;;;;3.85;1.40;;;;;;;;;;5090702;28;20473;-81
2024/01/22 06:04:23;;;;;;;5.60;1.70;;;;;;;;;;5082397;28;20411;-81
2024/01/22 06:06:49;;;;;;;4.07;1.65;;;;;;;;;;5080185;28;20417;-82
2024/01/22 06:09:16;;;;;;;6.30;1.60;;;;;;;;;;5073236;28;20779;-82
2024/01/22 06:11:43;;;;;;;5.95;2.05;;;;;;;;;;5091369;28;20401;-81
2024/01/22 06:14:09;;;;;;;5.97;1.90;;;;;;;;;;5074017;28;20425;-82
2024/01/22 06:16:35;;;;;;;6.70;2.25;;;;;;;;;;5092517;28;20486;-80
2024/01/22 06:19:01;;;;;;;7.53;1.95;;;;;;;;;;5093729;28;20401;-80
2024/01/22 06:21:27;;;;;;;6.35;2.58;;;;;;;;;;5091739;28;20402;-80
2024/01/22 06:23:53;;;;;;;7.83;2.47;;;;;;;;;;5074934;28;20443;-80
2024/01/22 06:26:21;;;;;;;9.95;2.83;;;;;;;;;;5061648;28;20404;-80
2024/01/22 06:28:47;;;;;;;7.90;2.60;;;;;;;;;;5073726;28;20759;-79
2024/01/22 06:31:14;;;;;;;8.63;2.75;;;;;;;;;;5069315;28;20502;-80
2024/01/22 06:33:40;;;;;;;9.43;2.70;;;;;;;;;;5091296;28;20546;-80
2024/01/22 06:36:06;;;;;;;9.93;3.13;;;;;;;;;;5092593;28;20390;-80
2024/01/22 06:38:32;;;;;;;10.93;2.45;;;;;;;;;;5087414;28;20406;-80
2024/01/22 06:40:58;;;;;;;9.98;2.58;;;;;;;;;;5090259;28;20913;-80
2024/01/22 06:43:24;;;;;;;12.25;3.35;;;;;;;;;;5091900;28;20482;-80
2024/01/22 06:45:51;;;;;;;11.10;3.00;;;;;;;;;;5074787;28;20390;-80
2024/01/22 06:48:17;;;;;;;7.70;2.78;;;;;;;;;;5062470;28;20506;-82
2024/01/22 06:50:43;;;;;;;10.52;2.40;;;;;;;;;;5053343;28;20433;-82
2024/01/22 06:53:09;;;;;;;13.98;2.70;;;;;;;;;;5072096;28;20777;-83
2024/01/22 06:55:35;;;;;;;10.80;3.22;;;;;;;;;;5072449;28;20404;-83
2024/01/22 06:58:01;;;;;;;13.13;3.22;;;;;;;;;;5055148;28;20407;-83
2024/01/22 07:00:27;;;;;;;11.52;3.20;;;;;;;;;;5055306;28;20403;-82
2024/01/22 07:02:53;;;;;;;12.82;3.28;;;;;;;;;;5034910;28;20428;-83
2024/01/22 07:05:19;;;;;;;20.83;4.15;;;;;;;;;;5072193;28;20403;-83
2024/01/22 07:07:46;;;;;;;17.70;4.10;;;;;;;;;;5055061;28;20430;-82
2024/01/22 07:10:13;;;;;;;16.80;3.83;;;;;;;;;;5055935;28;20495;-83
2024/01/22 07:12:42;;;;;;;18.35;4.57;;;;;;;;;;5054504;28;20403;-83
2024/01/22 07:15:12;;;;;;;15.60;4.30;;;;;;;;;;5071245;28;20438;-84
2024/01/22 07:17:40;;;;;;;16.50;4.47;;;;;;;;;;5071761;28;20799;-84
2024/01/22 07:20:07;;;;;;;19.65;4.78;;;;;;;;;;5031508;28;20421;-84
2024/01/22 07:22:36;;;;;;;17.70;4.50;;;;;;;;;;5069858;28;20410;-84
2024/01/22 07:25:03;;;;;;;21.92;4.90;;;;;;;;;;5055957;28;20404;-84
2024/01/22 07:27:29;;;;;;;24.25;4.82;;;;;;;;;;5054493;28;20772;-84
2024/01/22 07:29:56;;;;;;;20.55;5.10;;;;;;;;;;5054927;28;20947;-84
2024/01/22 07:32:22;;;;;;;25.73;5.18;;;;;;;;;;5049254;28;20404;-80
2024/01/22 07:34:49;;;;;;;21.52;4.72;;;;;;;;;;5069705;28;20403;-80
2024/01/22 07:37:15;;;;;;;26.20;5.00;;;;;;;;;;5061699;28;20437;-80
2024/01/22 07:39:41;;;;;;;25.13;5.80;;;;;;;;;;5064482;28;20959;-80
2024/01/22 07:42:08;;;;;;;23.38;5.57;;;;;;;;;;5068888;28;20903;-80
2024/01/22 07:44:34;;;;;;;26.83;5.10;;;;;;;;;;5069498;28;20904;-80
2024/01/22 07:47:01;;;;;;;27.25;5.70;;;;;;;;;;5069494;28;20534;-80
2024/01/22 07:49:27;;;;;;;21.65;5.40;;;;;;;;;;5094990;28;20459;-80
2024/01/22 07:51:53;;;;;;;28.37;5.80;;;;;;;;;;5092652;28;20465;-80
2024/01/22 07:54:19;;;;;;;30.50;6.47;;;;;;;;;;5084579;28;20416;-80
2024/01/22 07:56:45;;;;;;;29.30;6.35;;;;;;;;;;5108388;28;20399;-80
2024/01/22 07:59:11;;;;;;;38.55;6.03;;;;;;;;;;5083762;28;20396;-79
2024/01/22 08:01:37;;;;;;;30.60;6.33;;;;;;;;;;5092517;28;20436;-79
2024/01/22 08:04:03;;;;;;;37.33;7.82;;;;;;;;;;5092178;28;20925;-80
2024/01/22 08:06:31;;;;;;;41.03;7.68;;;;;;;;;;5093739;28;20876;-80
2024/01/22 08:08:58;;;;;;;42.55;7.25;;;;;;;;;;5092845;28;20924;-79
2024/01/22 08:11:24;;;;;;;41.67;6.88;;;;;;;;;;5109314;28;20471;-79
2024/01/22 08:13:50;;;;;;;38.20;7.53;;;;;;;;;;5110150;28;20388;-80
2024/01/22 08:16:16;;;;;;;43.80;7.63;;;;;;;;;;5075036;28;20400;-80
2024/01/22 08:18:42;;;;;;;41.15;7.55;;;;;;;;;;5057097;28;20826;-79
2024/01/22 08:21:08;;;;;;;44.70;8.13;;;;;;;;;;5081015;28;20428;-79
2024/01/22 08:23:35;;;;;;;34.80;6.50;;;;;;;;;;5090370;28;20465;-79
2024/01/22 08:26:01;;;;;;;33.63;7.67;;;;;;;;;;5073313;28;20963;-79
2024/01/22 08:28:27;;;;;;;39.70;7.18;;;;;;;;;;5071088;28;20480;-79
2024/01/22 08:30:55;;;;;;;35.67;7.00;;;;;;;;;;5098075;28;20932;-79
2024/01/22 08:33:21;;;;;;;33.17;6.50;;;;;;;;;;5105762;28;20412;-80
2024/01/22 08:35:47;;;;;;;36.72;6.68;;;;;;;;;;5076322;28;20788;-79
2024/01/22 08:38:13;;;;;;;48.15;8.38;;;;;;;;;;5075445;28;20404;-80
2024/01/22 08:40:40;;;;;;;51.28;9.10;;;;;;;;;;5093572;28;20403;-79
2024/01/22 08:43:08;;;;;;;49.67;9.77;;;;;;;;;;5090761;28;20494;-79
2024/01/22 08:45:34;;;;;;;59.55;10.93;;;;;;;;;;5111626;28;20400;-79
2024/01/22 08:48:00;;;;;;;58.78;11.38;;;;;;;;;;5091257;28;20474;-79
2024/01/22 08:50:26;;;;;;;60.63;10.70;;;;;;;;;;5090929;28;20418;-79
2024/01/22 08:52:53;;;;;;;61.35;11.98;;;;;;;;;;5075180;28;20419;-79
2024/01/22 08:55:22;;;;;;;63.80;10.15;;;;;;;;;;5092771;28;20434;-80
2024/01/22 08:57:48;;;;;;;68.47;12.00;;;;;;;;;;5111427;28;20403;-80
2024/01/22 09:00:15;;;;;;;57.65;10.77;;;;;;;;;;5083740;28;20828;-80
2024/01/22 09:02:42;;;;;;;49.50;9.88;;;;;;;;;;5095898;28;20403;-80
2024/01/22 09:05:09;;;;;;;61.65;10.60;;;;;;;;;;5080376;28;20423;-84
2024/01/22 09:07:35;;;;;;;61.55;11.18;;;;;;;;;;5093362;28;20432;-86
2024/01/22 09:10:07;;;;;;;59.67;10.63;;;;;;;;;;5093655;28;20404;-85
2024/01/22 09:12:36;;;;;;;61.13;11.82;;;;;;;;;;5093891;28;20425;-82
2024/01/22 09:15:05;;;;;;;53.22;10.52;;;;;;;;;;5089169;28;20428;-79
2024/01/22 09:17:31;;;;;;;60.78;11.98;;;;;;;;;;5086576;28;20434;-78
2024/01/22 09:19:58;;;;;;;60.38;10.60;;;;;;;;;;5102478;28;20389;-83
2024/01/22 09:22:24;;;;;;;54.42;10.77;;;;;;;;;;5076306;28;20749;-82
2024/01/22 09:24:51;;;;;;;58.97;10.82;;;;;;;;;;5073673;28;20390;-82
2024/01/22 09:27:17;;;;;;;59.10;10.18;;;;;;;;;;5075444;28;20428;-84
2024/01/22 09:29:43;;;;;;;58.80;11.18;;;;;;;;;;5088160;28;20396;-84
2024/01/22 09:32:09;;;;;;;55.38;11.23;;;;;;;;;;5091737;28;20560;-83
2024/01/22 09:34:36;;;;;;;56.92;10.57;;;;;;;;;;5070833;28;20812;-83
2024/01/22 09:37:03;;;;;;;53.13;10.20;;;;;;;;;;5085189;28;20750;-84
2024/01/22 09:39:30;;;;;;;48.80;9.68;;;;;;;;;;5083570;28;20399;-84
2024/01/22 09:41:56;;;;;;;55.25;9.52;;;;;;;;;;5077949;28;20400;-83
2024/01/22 09:44:23;;;;;;;53.38;9.02;;;;;;;;;;5080084;28;20399;-84
2024/01/22 09:46:49;;;;;;;49.15;10.55;;;;;;;;;;5086532;28;20433;-84
2024/01/22 09:49:15;;;;;;;45.35;8.93;;;;;;;;;;5087408;28;20426;-84
2024/01/22 09:51:44;;;;;;;55.15;8.70;;;;;;;;;;5064461;28;20388;-83
2024/01/22 09:54:11;;;;;;;43.88;8.40;;;;;;;;;;5073093;28;20402;-84
2024/01/22 09:56:37;;;;;;;39.25;8.75;;;;;;;;;;5076935;28;20398;-85
2024/01/22 09:59:19;;;;;;;39.10;8.23;;;;;;;;;;5089939;28;20406;-82
2024/01/22 10:01:47;;;;;;;46.13;9.55;;;;;;;;;;5097585;28;20475;-82
2024/01/22 10:04:14;;;;;;;37.25;8.10;;;;;;;;;;5090177;28;21275;-83
2024/01/22 10:06:44;;;;;;;39.47;7.65;;;;;;;;;;5075929;28;20890;-84
2024/01/22 10:09:15;;;;;;;38.15;8.13;;;;;;;;;;5085791;28;20405;-84
2024/01/22 10:11:45;;;;;;;39.60;8.52;;;;;;;;;;5092644;28;20945;-83
2024/01/22 10:14:11;;;;;;;39.53;8.00;;;;;;;;;;5091278;28;20394;-83
2024/01/22 10:16:37;;;;;;;40.97;7.55;;;;;;;;;;5073992;28;20468;-83
2024/01/22 10:19:09;;;;;;;35.58;6.85;;;;;;;;;;5095635;28;20396;-83
2024/01/22 10:21:36;;;;;;;31.35;6.32;;;;;;;;;;5075470;28;20427;-84
2024/01/22 10:24:02;;;;;;;26.27;5.80;;;;;;;;;;5090059;28;20396;-85
2024/01/22 10:26:28;;;;;;;30.60;6.60;;;;;;;;;;5091823;28;20397;-83
2024/01/22 10:28:55;;;;;;;27.63;6.10;;;;;;;;;;5092752;28;20428;-84
2024/01/22 10:31:21;;;;;;;29.65;6.82;;;;;;;;;;5093404;28;20427;-84
2024/01/22 10:33:48;;;;;;;28.10;6.55;;;;;;;;;;5072996;28;20431;-83
2024/01/22 10:36:16;;;;;;;30.17;6.43;;;;;;;;;;5075965;28;20407;-83
2024/01/22 10:38:43;;;;;;;28.67;5.97;;;;;;;;;;5091012;28;20800;-84
2024/01/22 10:41:16;;;;;;;31.90;7.13;;;;;;;;;;5089906;28;20420;-84
2024/01/22 10:43:43;;;;;;;35.38;7.88;;;;;;;;;;5076366;28;20416;-84
2024/01/22 10:46:11;;;;;;;36.55;7.50;;;;;;;;;;5085856;28;20817;-83
2024/01/22 10:48:37;;;;;;;36.35;7.95;;;;;;;;;;5093145;28;20872;-84
2024/01/22 10:51:04;;;;;;;39.00;7.57;;;;;;;;;;5093589;28;20806;-84
2024/01/22 10:53:32;;;;;;;39.03;8.50;;;;;;;;;;5094267;28;20434;-83
2024/01/22 10:56:05;;;;;;;35.42;7.57;;;;;;;;;;5076912;28;20972;-83
2024/01/22 10:58:44;;;;;;;38.20;7.57;;;;;;;;;;5087955;28;20404;-84
2024/01/22 11:01:15;;;;;;;36.50;7.35;;;;;;;;;;5093534;28;20435;-84
2024/01/22 11:03:52;;;;;;;34.90;8.20;;;;;;;;;;5094976;28;20457;-84
2024/01/22 11:06:23;;;;;;;35.53;7.50;;;;;;;;;;5092784;28;20404;-84
2024/01/22 11:08:53;;;;;;;30.45;6.68;;;;;;;;;;5082332;28;20458;-83
2024/01/22 11:11:26;;;;;;;28.90;6.38;;;;;;;;;;5093078;28;20396;-82
2024/01/22 11:13:56;;;;;;;26.50;5.35;;;;;;;;;;5092914;28;20483;-83
2024/01/22 11:16:23;;;;;;;26.45;5.75;;;;;;;;;;5074869;28;20444;-83
2024/01/22 11:18:56;;;;;;;27.02;6.10;;;;;;;;;;5092559;28;20427;-83
2024/01/22 11:21:22;;;;;;;26.58;5.45;;;;;;;;;;5060428;28;20475;-84
2024/01/22 11:24:23;;;;;;;26.85;5.70;;;;;;;;;;5094167;28;20452;-84
2024/01/22 11:26:52;;;;;;;25.15;5.68;;;;;;;;;;5022811;28;21017;-83
2024/01/22 11:29:26;;;;;;;24.95;5.55;;;;;;;;;;5059133;28;20416;-83
2024/01/22 11:31:52;;;;;;;24.88;5.10;;;;;;;;;;5090130;28;20503;-83
2024/01/22 11:34:40;;;;;;;27.00;5.67;;;10.50;99.90;;;;;;5074650;28;20557;-83
2024/01/22 11:37:07;;;;;;;26.83;5.10;;;;;;;;;;5072290;28;20429;-84
2024/01/22 11:39:39;;;;;;;27.95;6.00;;;;;;;;;;5092563;28;20443;-84
2024/01/22 11:42:22;;;;;;;25.23;5.57;;;;;;;;;;5092308;28;20426;-83
2024/01/22 11:44:49;;;;;;;23.00;5.53;;;;;;;;;;5071978;28;20406;-84
2024/01/22 11:47:15;;;;;;;23.10;5.85;;;;;;;;;;5092474;28;20512;-83
2024/01/22 11:49:42;;;;;;;24.80;5.55;;;;;;;;;;5084892;28;20428;-84
2024/01/22 11:52:14;;;;;;;21.50;5.47;;;;;;;;;;5084979;28;20394;-85
2024/01/22 11:54:53;;;;;;;24.67;5.30;;;;;;;;;;5074676;28;20400;-84
2024/01/22 11:57:19;;;;;;;23.90;5.07;;;;;;;;;;5054560;28;20447;-84
2024/01/22 12:00:09;;;;;;;21.02;5.72;;;;;;;;;;5072691;28;20887;-84
2024/01/22 12:02:36;;;;;;;26.45;5.05;;;;;;;;;;5075084;28;20892;-83
2024/01/22 12:05:07;;;;;;;25.58;5.50;;;;;;;;;;5093997;28;20939;-84
2024/01/22 12:07:34;;;;;;;21.17;4.78;;;;;;;;;;5076611;28;20424;-83
2024/01/22 12:10:00;;;;;;;26.38;5.90;;;;;;;;;;5075621;28;20400;-84
2024/01/22 12:12:26;;;;;;;22.80;4.95;;;;;;;;;;5091343;28;20420;-83
2024/01/22 12:14:56;;;;;;;24.42;5.00;;;;;;;;;;5093236;28;20388;-84
2024/01/22 12:17:22;;;;;;;24.80;5.60;;;;;;;;;;5062547;28;20404;-84
2024/01/22 12:19:53;;;;;;;19.13;4.60;;;;;;;;;;5090326;28;20420;-84
2024/01/22 12:22:20;;;;;;;20.23;4.78;;;;;;;;;;5079981;28;20493;-84
2024/01/22 12:25:01;;;;;;;20.10;5.50;;;;;;;;;;5073084;28;20485;-83
2024/01/22 12:27:28;;;;;;;19.33;5.17;;;;;;;;;;5088883;28;20510;-84
2024/01/22 12:30:20;;;;;;;16.08;4.18;;;;;;;;;;5070594;28;20452;-83
2024/01/22 12:32:53;;;;;;;18.63;4.23;;;;;;;;;;5074206;28;20408;-84
2024/01/22 12:35:23;;;;;;;18.30;4.30;;;;;;;;;;5084465;28;20502;-83
2024/01/22 12:37:49;;;;;;;21.03;4.80;;;;;;;;;;5078776;28;20815;-84
2024/01/22 12:40:17;;;;;;;18.40;4.60;;;;;;;;;;5076641;28;20400;-84
2024/01/22 12:42:47;;;;;;;19.80;4.40;;;;;;;;;;5091630;28;20736;-83
2024/01/22 12:45:20;;;;;;;14.57;4.60;;;;;;;;;;5066946;28;20406;-85
2024/01/22 12:47:47;;;;;;;23.77;4.70;;;;;;;;;;5057072;28;20429;-90
2024/01/22 12:50:18;;;;;;;19.50;4.88;;;;;;;;;;5084092;28;20432;-90
2024/01/22 12:52:45;;;;;;;22.10;5.18;;;;;;;;;;5077024;28;20447;-89
2024/01/22 12:55:14;;;;;;;23.60;4.88;;;;;;;;;;5079106;28;20392;-90
2024/01/22 12:57:40;;;;;;;16.50;4.80;;;;;;;;;;5095053;28;20426;-90
2024/01/22 13:00:08;;;;;;;23.50;5.45;;;;;;;;;;5075661;28;20410;-89
2024/01/22 13:02:37;;;;;;;21.33;4.97;;;;;;;;;;5085678;28;20418;-90
2024/01/22 13:05:03;;;;;;;22.55;5.15;;;;;;;;;;5064772;28;20487;-89
2024/01/22 13:07:29;;;;;;;22.20;5.45;;;;;;;;;;5094470;28;20421;-89
2024/01/22 13:09:55;;;;;;;19.07;4.60;;;;;;;;;;5097587;28;20924;-89
2024/01/22 13:12:24;;;;;;;22.20;4.60;;;;;;;;;;5082101;28;20387;-89
2024/01/22 13:14:51;;;;;;;23.43;5.00;;;;;;;;;;5090073;28;20493;-89
2024/01/22 13:17:17;;;;;;;22.45;5.32;;;;;;;;;;5066256;28;20415;-89
2024/01/22 13:19:43;;;;;;;23.85;5.00;;;;;;;;;;5080692;28;20473;-89
2024/01/22 13:22:09;;;;;;;21.23;5.13;;;;;;;;;;5053505;28;20400;-89
2024/01/22 13:24:37;;;;;;;27.02;5.45;;;;;;;;;;5093906;28;20403;-88
2024/01/22 13:27:03;;;;;;;23.00;5.30;;;;;;;;;;5090321;28;20495;-89
2024/01/22 13:29:29;;;;;;;23.10;4.95;;;;;;;;;;5078431;28;20466;-89
2024/01/22 13:31:56;;;;;;;26.63;5.90;;;;;;;;;;5080886;28;20426;-90
2024/01/22 13:34:24;;;;;;;22.88;5.00;;;;;;;;;;5098115;28;20404;-89
2024/01/22 13:36:50;;;;;;;26.95;5.55;;;;;;;;;;5102231;28;20420;-90
2024/01/22 13:39:17;;;;;;;27.85;6.03;;;;;;;;;;5080828;28;20471;-88
2024/01/22 13:41:43;;;;;;;24.00;5.07;;;;;;;;;;5077632;28;20396;-89
2024/01/22 13:44:18;;;;;;;22.38;5.15;;;;;;;;;;5068496;28;20760;-89
2024/01/22 13:46:44;;;;;;;26.10;5.27;;;;;;;;;;5076873;28;20404;-89
2024/01/22 13:49:11;;;;;;;23.42;6.30;;;;;;;;;;5060636;28;20408;-88
2024/01/22 13:51:37;;;;;;;23.27;4.88;;;;;;;;;;5080056;28;20907;-88
2024/01/22 13:54:03;;;;;;;26.80;5.67;;;;;;;;;;5096460;28;20423;-88
2024/01/22 13:56:29;;;;;;;24.45;5.55;;;;;;;;;;5067098;28;20414;-89
2024/01/22 13:58:55;;;;;;;24.30;5.53;;;;;;;;;;5077908;28;20402;-88
2024/01/22 14:01:22;;;;;;;19.70;5.18;;;;;;;;;;5088801;28;20479;-89
2024/01/22 14:03:48;;;;;;;19.38;5.00;;;;;;;;;;5080366;28;20396;-88
2024/01/22 14:06:14;;;;;;;21.80;5.38;;;;;;;;;;5096053;28;20396;-88
2024/01/22 14:08:40;;;;;;;26.35;5.85;;;;;;;;;;5086529;28;20492;-89
2024/01/22 14:11:06;;;;;;;20.15;4.80;;;;;;;;;;5060102;28;20418;-88
2024/01/22 14:13:32;;;;;;;28.65;5.15;;;;;;;;;;5079950;28;20718;-88
2024/01/22 14:15:58;;;;;;;23.67;5.30;;;;;;;;;;5079925;28;20395;-88
2024/01/22 14:18:26;;;;;;;27.92;5.35;;;;;;;;;;5076094;28;20511;-89
2024/01/22 14:20:53;;;;;;;28.98;5.65;;;;;;;;;;5060050;28;20424;-89
2024/01/22 14:23:19;;;;;;;22.57;6.33;;;;;;;;;;5075138;28;20419;-88
2024/01/22 14:25:45;;;;;;;28.23;5.38;;;;;;;;;;5065009;28;20398;-80
2024/01/22 14:28:11;;;;;;;28.67;5.60;;;;;;;;;;5087453;28;20903;-79
2024/01/22 14:30:39;;;;;;;24.63;5.38;;;;;;;;;;5093855;28;20445;-80
2024/01/22 14:33:05;;;;;;;24.08;5.50;;;;;;;;;;5077239;28;20405;-80
2024/01/22 14:35:31;;;;;;;28.60;5.20;;;;;;;;;;5078968;28;20414;-80
2024/01/22 14:37:57;;;;;;;28.27;6.00;;;;;;;;;;5093066;28;20424;-79
2024/01/22 14:40:23;;;;;;;25.48;5.40;;;;;;;;;;5112194;28;20400;-79
2024/01/22 14:42:49;;;;;;;23.63;5.32;;;;;;;;;;5054862;28;20400;-88
2024/01/22 14:45:16;;;;;;;27.42;5.72;;;;;;;;;;5096723;28;20403;-88
2024/01/22 14:47:42;;;;;;;24.70;5.82;;;;;;;;;;5083384;28;20515;-88
2024/01/22 14:50:08;;;;;;;25.13;4.97;;;;;;;;;;5098511;28;20447;-88
2024/01/22 14:52:34;;;;;;;23.83;5.55;;;;;;;;;;5073690;28;20448;-88
2024/01/22 14:55:00;;;;;;;33.60;6.35;;;;;;;;;;5049130;28;20575;-79
2024/01/22 14:57:27;;;;;;;26.95;5.15;;;;;;;;;;5094752;28;20398;-89
2024/01/22 14:59:53;;;;;;;26.10;5.57;;;;;;;;;;5075044;28;20400;-89